Time;durP1;ratioP1;P1;durP2;ratioP2;P2;SDS_P1;SDS_P2;PMS_P1;PMS_P2;Temp;Humidity;BMP_temperature;BMP_pressure;BME280_temperature;BME280_humidity;BME280_pressure;Samples;Min_cycle;Max_cycle;Signal;HPM_P1;HPM_P2
2021/12/27 00:02:19;;;;;;;10.65;5.20;;;1.70;99.90;;;;;;5028452;28;20072;-88
2021/12/27 00:04:45;;;;;;;11.55;5.30;;;1.70;99.90;;;;;;5028643;28;20042;-89
2021/12/27 00:07:11;;;;;;;11.65;5.82;;;1.70;99.90;;;;;;5046150;28;20021;-89
2021/12/27 00:09:37;;;;;;;11.90;5.97;;;1.70;99.90;;;;;;5044674;28;20052;-88
2021/12/27 00:12:04;;;;;;;10.90;5.53;;;1.70;99.90;;;;;;5044710;28;20036;-89
2021/12/27 00:14:29;;;;;;;11.38;5.70;;;1.70;99.90;;;;;;5044853;28;20102;-89
2021/12/27 00:16:55;;;;;;;11.40;6.07;;;1.70;99.90;;;;;;5044746;28;20481;-89
2021/12/27 00:19:21;;;;;;;11.95;5.53;;;1.80;99.90;;;;;;5044866;28;20036;-89
2021/12/27 00:21:46;;;;;;;12.57;5.95;;;1.80;99.90;;;;;;5044787;28;20034;-88
2021/12/27 00:24:12;;;;;;;9.32;5.10;;;1.80;99.90;;;;;;5028314;28;20041;-89
2021/12/27 00:26:38;;;;;;;13.07;6.03;;;1.80;99.90;;;;;;5044791;28;20087;-88
2021/12/27 00:29:03;;;;;;;12.45;5.90;;;1.80;99.90;;;;;;5044597;28;20473;-89
2021/12/27 00:31:29;;;;;;;12.25;5.28;;;1.80;99.90;;;;;;5044228;28;20056;-88
2021/12/27 00:33:55;;;;;;;9.07;4.85;;;1.90;99.90;;;;;;5028049;28;20030;-88
2021/12/27 00:36:20;;;;;;;10.68;5.53;;;1.80;99.90;;;;;;5044660;28;20500;-88
2021/12/27 00:38:47;;;;;;;11.75;5.20;;;1.90;99.90;;;;;;5035389;28;20102;-89
2021/12/27 00:41:12;;;;;;;12.80;6.35;;;1.90;99.90;;;;;;5031208;28;20044;-88
2021/12/27 00:43:38;;;;;;;11.57;6.45;;;1.90;99.90;;;;;;5047961;28;20041;-88
2021/12/27 00:46:03;;;;;;;11.77;6.13;;;1.90;99.90;;;;;;5031404;28;20025;-88
2021/12/27 00:48:29;;;;;;;11.10;5.70;;;1.90;99.90;;;;;;5047946;28;20477;-88
2021/12/27 00:50:55;;;;;;;12.60;6.72;;;1.90;99.90;;;;;;5049301;28;20033;-88
2021/12/27 00:53:21;;;;;;;9.48;5.22;;;1.90;99.90;;;;;;5047737;28;20051;-88
2021/12/27 00:55:46;;;;;;;10.65;5.40;;;1.90;99.90;;;;;;5048733;28;20033;-88
2021/12/27 00:58:12;;;;;;;10.13;4.93;;;1.90;99.90;;;;;;5047783;28;20035;-88
2021/12/27 01:00:38;;;;;;;10.20;5.43;;;1.90;99.90;;;;;;5031216;28;20029;-88
2021/12/27 01:03:04;;;;;;;9.80;5.35;;;1.90;99.90;;;;;;5047591;28;20025;-88
2021/12/27 01:05:30;;;;;;;9.43;4.80;;;2.00;99.90;;;;;;5047478;28;20109;-87
2021/12/27 01:07:56;;;;;;;10.52;5.28;;;2.00;99.90;;;;;;5047698;28;20033;-88
2021/12/27 01:13:39;;;;;;;10.63;5.10;;;2.00;99.90;;;;;;5051542;28;20075;-88
2021/12/27 01:18:33;;;;;;;10.15;4.88;;;2.00;99.90;;;;;;5051174;28;20029;-88
2021/12/27 01:20:59;;;;;;;10.98;4.75;;;2.00;99.90;;;;;;5034875;28;20100;-88
2021/12/27 01:23:25;;;;;;;9.20;4.88;;;2.00;99.90;;;;;;5051337;28;20033;-87
2021/12/27 01:25:51;;;;;;;9.32;4.50;;;2.00;99.90;;;;;;5034583;28;20029;-87
2021/12/27 01:28:18;;;;;;;9.25;5.05;;;2.00;99.90;;;;;;5034781;28;20040;-87
2021/12/27 01:30:48;;;;;;;11.00;5.32;;;2.00;99.90;;;;;;5050969;28;20048;-87
2021/12/27 01:33:19;;;;;;;11.30;6.07;;;2.10;99.90;;;;;;5034273;28;20036;-87
2021/12/27 01:35:45;;;;;;;11.18;5.65;;;2.10;99.90;;;;;;5050971;28;20056;-87
2021/12/27 01:38:13;;;;;;;9.75;5.30;;;2.10;99.90;;;;;;5067671;28;20059;-87
2021/12/27 01:40:41;;;;;;;11.63;5.60;;;2.10;99.90;;;;;;5051062;28;20037;-87
2021/12/27 01:43:13;;;;;;;11.65;6.18;;;2.10;99.90;;;;;;5034466;28;20032;-87
2021/12/27 01:45:46;;;;;;;10.05;5.00;;;2.10;99.90;;;;;;5034385;28;20041;-87
2021/12/27 01:48:13;;;;;;;12.65;6.32;;;2.10;99.90;;;;;;5034213;28;20032;-87
2021/12/27 01:50:44;;;;;;;11.52;5.78;;;2.20;99.90;;;;;;5034369;28;20040;-86
2021/12/27 01:53:10;;;;;;;11.02;5.93;;;2.20;99.90;;;;;;5034294;28;20033;-87
2021/12/27 01:55:37;;;;;;;11.68;5.65;;;2.10;99.90;;;;;;5034224;28;20029;-86
2021/12/27 01:58:03;;;;;;;11.93;6.55;;;2.20;99.90;;;;;;5034334;28;20028;-86
2021/12/27 02:00:29;;;;;;;11.55;6.03;;;2.20;99.90;;;;;;5050536;28;20025;-87
2021/12/27 02:02:54;;;;;;;12.00;5.90;;;2.20;99.90;;;;;;5050434;28;20112;-87
2021/12/27 02:05:20;;;;;;;10.23;5.93;;;2.20;99.90;;;;;;5050179;28;20033;-86
2021/12/27 02:07:46;;;;;;;8.73;4.85;;;2.20;99.90;;;;;;5050429;28;20531;-86
2021/12/27 02:10:13;;;;;;;12.60;5.85;;;2.20;99.90;;;;;;5050546;28;20036;-86
2021/12/27 02:12:39;;;;;;;10.65;5.82;;;2.20;99.90;;;;;;5050335;28;20040;-86
2021/12/27 02:15:09;;;;;;;9.43;5.05;;;2.20;99.90;;;;;;5050142;28;20072;-86
2021/12/27 02:17:38;;;;;;;10.65;5.40;;;2.20;99.90;;;;;;5050453;28;20033;-86
2021/12/27 02:20:09;;;;;;;9.82;5.70;;;2.20;99.90;;;;;;5033631;28;20041;-86
2021/12/27 02:22:36;;;;;;;13.23;6.15;;;2.20;99.90;;;;;;5033553;28;20103;-86
2021/12/27 02:25:07;;;;;;;11.77;6.18;;;2.30;99.90;;;;;;5050132;28;20301;-86
2021/12/27 02:27:34;;;;;;;11.70;5.70;;;2.30;99.90;;;;;;5033655;28;20033;-86
2021/12/27 02:30:00;;;;;;;12.00;6.07;;;2.30;99.90;;;;;;5033111;28;20048;-86
2021/12/27 02:32:26;;;;;;;12.10;6.15;;;2.30;99.90;;;;;;5049824;28;20025;-86
2021/12/27 02:34:51;;;;;;;11.50;5.95;;;2.30;99.90;;;;;;5032976;28;20032;-87
2021/12/27 02:37:17;;;;;;;10.43;5.65;;;2.30;99.90;;;;;;5050166;28;20079;-86
2021/12/27 02:39:45;;;;;;;10.57;5.47;;;2.30;99.90;;;;;;5046405;28;20060;-86
2021/12/27 02:42:16;;;;;;;12.73;5.75;;;2.40;99.90;;;;;;5046404;28;20083;-85
2021/12/27 02:44:42;;;;;;;8.93;4.35;;;2.40;99.90;;;;;;5046138;28;20046;-86
2021/12/27 02:47:07;;;;;;;13.65;6.20;;;2.30;99.90;;;;;;5046272;28;20063;-86
2021/12/27 02:49:33;;;;;;;11.57;6.22;;;2.30;99.90;;;;;;5046298;28;20075;-85
2021/12/27 02:51:59;;;;;;;10.88;5.63;;;2.30;99.90;;;;;;5046236;28;20489;-86
2021/12/27 02:54:24;;;;;;;10.35;5.70;;;2.40;99.90;;;;;;5029344;28;20097;-86
2021/12/27 02:56:50;;;;;;;13.32;5.32;;;2.40;99.90;;;;;;5029725;28;20083;-87
2021/12/27 02:59:15;;;;;;;10.50;4.65;;;2.40;99.90;;;;;;5045740;28;20022;-86
2021/12/27 03:01:41;;;;;;;8.95;4.68;;;2.40;99.90;;;;;;5046183;28;20037;-86
2021/12/27 03:04:07;;;;;;;9.65;4.93;;;2.40;99.90;;;;;;5045819;28;20041;-86
2021/12/27 03:06:32;;;;;;;12.68;5.55;;;2.40;99.90;;;;;;5029333;28;20040;-86
2021/12/27 03:08:58;;;;;;;10.30;5.30;;;2.40;99.90;;;;;;5045792;28;20485;-86
2021/12/27 03:11:24;;;;;;;10.30;5.28;;;2.50;99.90;;;;;;5046129;28;20481;-86
2021/12/27 03:13:51;;;;;;;11.13;5.60;;;2.40;99.90;;;;;;5029441;28;20101;-86
2021/12/27 03:16:19;;;;;;;10.73;5.32;;;2.50;99.90;;;;;;5045943;28;20093;-86
2021/12/27 03:18:47;;;;;;;10.63;5.78;;;2.50;99.90;;;;;;5045521;28;20060;-86
2021/12/27 03:21:13;;;;;;;11.15;6.25;;;2.50;99.90;;;;;;5045469;28;20055;-86
2021/12/27 03:23:41;;;;;;;10.60;5.22;;;2.50;99.90;;;;;;5045257;28;20033;-86
2021/12/27 03:26:08;;;;;;;10.35;5.40;;;2.60;99.90;;;;;;5045594;28;20036;-86
2021/12/27 03:28:54;;;;;;;12.07;5.75;;;2.60;99.90;;;;;;5045225;28;20066;-85
2021/12/27 03:31:20;;;;;;;11.00;4.82;;;2.60;99.90;;;;;;4979314;28;20061;-85
2021/12/27 03:33:46;;;;;;;10.00;5.38;;;2.60;99.90;;;;;;4984741;28;20062;-85
2021/12/27 03:36:11;;;;;;;9.73;5.43;;;2.60;99.90;;;;;;4965884;28;20066;-86
2021/12/27 03:38:44;;;;;;;12.65;5.93;;;2.60;99.90;;;;;;4966348;29;20129;-85
2021/12/27 03:41:13;;;;;;;11.63;5.65;;;2.60;99.90;;;;;;4977957;28;20030;-85
2021/12/27 03:43:40;;;;;;;11.88;6.13;;;2.70;99.90;;;;;;4969333;28;20058;-85
2021/12/27 03:46:05;;;;;;;11.57;6.40;;;2.70;99.90;;;;;;4969001;28;20059;-84
2021/12/27 03:48:31;;;;;;;8.73;4.85;;;2.70;99.90;;;;;;4968775;28;20039;-85
2021/12/27 03:50:57;;;;;;;11.25;5.40;;;2.70;99.90;;;;;;4968785;28;20130;-85
2021/12/27 03:53:23;;;;;;;10.20;5.35;;;2.70;99.90;;;;;;4969192;28;20035;-85
2021/12/27 03:55:49;;;;;;;9.00;4.72;;;2.70;99.90;;;;;;4985142;28;20046;-85
2021/12/27 03:58:27;;;;;;;12.57;6.07;;;2.70;99.90;;;;;;4969027;28;20566;-85
2021/12/27 04:03:21;;;;;;;9.18;4.45;;;2.80;99.90;;;;;;4985057;28;20062;-85
2021/12/27 04:05:48;;;;;;;13.13;6.15;;;2.80;99.90;;;;;;4985061;28;20114;-86
2021/12/27 04:08:16;;;;;;;10.82;5.53;;;2.90;99.90;;;;;;5003021;28;20040;-85
2021/12/27 04:10:42;;;;;;;10.23;5.00;;;2.80;99.90;;;;;;5048318;28;20044;-85
2021/12/27 04:13:09;;;;;;;12.65;5.82;;;2.80;99.90;;;;;;5048173;28;20029;-85
2021/12/27 04:15:36;;;;;;;11.48;6.53;;;2.90;99.90;;;;;;5031577;28;20131;-85
2021/12/27 04:18:02;;;;;;;11.15;5.55;;;2.90;99.90;;;;;;5031815;28;20036;-85
2021/12/27 04:20:28;;;;;;;12.48;6.15;;;2.90;99.90;;;;;;5031577;28;20083;-85
2021/12/27 04:22:54;;;;;;;10.10;5.53;;;3.00;99.90;;;;;;5031568;28;20037;-85
2021/12/27 04:25:20;;;;;;;13.00;6.75;;;3.00;99.90;;;;;;5031473;28;20056;-85
2021/12/27 04:27:48;;;;;;;9.68;5.43;;;3.00;99.90;;;;;;5031647;28;20047;-85
2021/12/27 04:30:15;;;;;;;14.18;6.32;;;3.00;99.90;;;;;;5030811;28;20058;-85
2021/12/27 04:32:41;;;;;;;10.27;5.68;;;3.00;99.90;;;;;;5031442;28;20052;-86
2021/12/27 04:35:08;;;;;;;10.25;5.88;;;3.00;99.90;;;;;;5047467;28;20396;-85
2021/12/27 04:37:34;;;;;;;9.82;5.45;;;3.00;99.90;;;;;;5047834;28;20033;-85
2021/12/27 04:40:02;;;;;;;10.45;5.60;;;3.00;99.90;;;;;;5031145;28;20064;-85
2021/12/27 04:42:31;;;;;;;8.40;4.18;;;3.10;99.90;;;;;;5031185;28;20036;-85
2021/12/27 04:44:57;;;;;;;8.88;4.60;;;3.10;99.90;;;;;;5047983;28;20128;-85
2021/12/27 04:47:23;;;;;;;10.07;5.40;;;3.10;99.90;;;;;;5051841;28;20035;-85
2021/12/27 04:49:49;;;;;;;10.93;5.30;;;3.20;99.90;;;;;;5051739;28;20100;-85
2021/12/27 04:52:15;;;;;;;9.32;5.57;;;3.10;99.90;;;;;;5068321;28;20037;-85
2021/12/27 04:54:40;;;;;;;9.18;5.57;;;3.20;99.90;;;;;;5068256;28;20025;-85
2021/12/27 04:57:06;;;;;;;9.68;5.80;;;3.10;99.90;;;;;;5068642;28;20526;-85
2021/12/27 04:59:32;;;;;;;11.73;5.50;;;3.20;99.90;;;;;;5051238;28;20123;-85
2021/12/27 05:01:58;;;;;;;11.02;5.95;;;3.20;99.90;;;;;;5051416;28;20078;-86
2021/12/27 05:04:23;;;;;;;9.95;6.40;;;3.20;99.90;;;;;;5068013;28;20028;-85
2021/12/27 05:06:49;;;;;;;9.38;5.07;;;3.30;99.90;;;;;;5067915;28;20441;-86
2021/12/27 05:09:15;;;;;;;12.13;6.38;;;3.20;99.90;;;;;;5051414;28;20105;-85
2021/12/27 05:11:41;;;;;;;12.77;6.63;;;3.30;99.90;;;;;;5051242;28;20032;-85
2021/12/27 05:14:07;;;;;;;12.02;5.97;;;3.30;99.90;;;;;;5067950;28;20047;-85
2021/12/27 05:16:33;;;;;;;10.88;5.80;;;3.30;99.90;;;;;;5050958;28;20032;-85
2021/12/27 05:18:59;;;;;;;10.98;5.82;;;3.30;99.90;;;;;;5051303;28;20025;-85
2021/12/27 05:21:25;;;;;;;10.27;6.45;;;3.30;99.90;;;;;;5067671;28;20182;-85
2021/12/27 05:23:51;;;;;;;9.52;6.03;;;3.40;99.90;;;;;;5050702;28;20052;-85
2021/12/27 05:26:18;;;;;;;11.10;6.63;;;3.40;99.90;;;;;;5067856;28;20029;-85
2021/12/27 05:29:03;;;;;;;8.98;5.72;;;3.40;99.90;;;;;;5067772;28;20105;-84
2021/12/27 05:31:29;;;;;;;10.32;5.97;;;3.40;99.90;;;;;;4970978;28;20051;-85
2021/12/27 05:33:55;;;;;;;11.55;5.80;;;3.40;99.90;;;;;;4987626;28;20047;-85
2021/12/27 05:36:20;;;;;;;12.77;5.82;;;3.40;99.90;;;;;;4987554;28;20043;-86
2021/12/27 05:38:46;;;;;;;10.55;5.78;;;3.50;99.90;;;;;;4987500;28;20022;-86
2021/12/27 05:41:12;;;;;;;10.23;5.97;;;3.40;99.90;;;;;;4955201;28;20030;-85
2021/12/27 05:43:37;;;;;;;10.23;5.97;;;3.40;99.90;;;;;;4971167;28;20610;-85
2021/12/27 05:46:04;;;;;;;10.18;6.32;;;3.40;99.90;;;;;;4955122;28;20034;-86
2021/12/27 05:48:30;;;;;;;8.93;5.47;;;3.50;99.90;;;;;;4971247;28;20070;-85
2021/12/27 05:50:56;;;;;;;12.75;5.75;;;3.50;99.90;;;;;;4971073;28;20038;-86
2021/12/27 05:53:21;;;;;;;8.40;5.53;;;3.50;99.90;;;;;;4971000;28;20039;-85
2021/12/27 05:55:47;;;;;;;9.52;5.90;;;3.50;99.90;;;;;;4954950;28;20106;-86
2021/12/27 05:58:13;;;;;;;10.95;5.20;;;3.50;99.90;;;;;;4954415;28;20066;-86
2021/12/27 06:00:39;;;;;;;8.93;5.38;;;3.60;99.90;;;;;;4954554;28;20038;-86
2021/12/27 06:03:05;;;;;;;10.15;5.65;;;3.50;99.90;;;;;;4954823;28;20066;-85
2021/12/27 06:05:31;;;;;;;9.98;5.43;;;3.50;99.90;;;;;;4954894;28;20439;-86
2021/12/27 06:07:57;;;;;;;9.55;5.93;;;3.50;99.90;;;;;;4971985;28;20097;-86
2021/12/27 06:10:24;;;;;;;11.05;5.75;;;3.50;99.90;;;;;;5050241;28;20063;-86
2021/12/27 06:12:50;;;;;;;10.90;6.22;;;3.50;99.90;;;;;;5050420;28;20025;-86
2021/12/27 06:15:16;;;;;;;10.75;6.05;;;3.60;99.90;;;;;;5050299;28;20477;-85
2021/12/27 06:17:42;;;;;;;11.90;6.72;;;3.50;99.90;;;;;;5050280;28;20033;-86
2021/12/27 06:20:14;;;;;;;11.50;7.20;;;3.60;99.90;;;;;;5050092;28;20037;-86
2021/12/27 06:22:45;;;;;;;11.23;6.22;;;3.60;99.90;;;;;;5049961;28;20116;-86
2021/12/27 06:25:11;;;;;;;10.23;5.75;;;3.50;99.90;;;;;;5042442;28;20052;-86
2021/12/27 06:27:39;;;;;;;11.80;6.25;;;3.60;99.90;;;;;;5050394;28;20025;-85
2021/12/27 06:30:10;;;;;;;11.63;6.07;;;3.60;99.90;;;;;;5033137;28;20049;-86
2021/12/27 06:32:36;;;;;;;11.70;7.18;;;3.60;99.90;;;;;;5050227;28;20032;-87
2021/12/27 06:35:03;;;;;;;10.13;5.70;;;3.60;99.90;;;;;;5049662;28;20104;-87
2021/12/27 06:37:29;;;;;;;11.05;6.53;;;3.70;99.90;;;;;;5049367;28;20033;-87
2021/12/27 06:39:55;;;;;;;10.73;6.40;;;3.60;99.90;;;;;;5036402;28;20059;-88
2021/12/27 06:42:20;;;;;;;10.13;6.28;;;3.70;99.90;;;;;;5049955;28;20021;-87
2021/12/27 06:44:46;;;;;;;10.73;6.20;;;3.70;99.90;;;;;;5049593;28;20045;-89
2021/12/27 06:47:12;;;;;;;11.50;6.78;;;3.70;99.90;;;;;;5067392;28;20041;-88
2021/12/27 06:49:38;;;;;;;10.93;5.95;;;3.70;99.90;;;;;;5049837;28;20024;-87
2021/12/27 06:52:04;;;;;;;10.25;5.85;;;3.70;99.90;;;;;;5066194;28;20021;-88
2021/12/27 06:54:30;;;;;;;12.05;6.80;;;3.70;99.90;;;;;;5033229;28;20033;-88
2021/12/27 06:56:59;;;;;;;9.30;5.88;;;3.80;99.90;;;;;;5066157;28;20104;-87
2021/12/27 06:59:29;;;;;;;10.70;5.93;;;3.70;99.90;;;;;;5066582;28;20041;-88
2021/12/27 07:01:55;;;;;;;8.23;4.97;;;3.80;99.90;;;;;;5034282;28;20119;-88
2021/12/27 07:04:21;;;;;;;9.43;5.40;;;3.80;99.90;;;;;;5050760;28;20037;-86
2021/12/27 07:06:47;;;;;;;9.57;5.68;;;3.80;99.90;;;;;;5050007;28;20097;-87
2021/12/27 07:09:12;;;;;;;9.25;6.00;;;3.80;99.90;;;;;;5048641;28;20080;-87
2021/12/27 07:11:38;;;;;;;9.63;5.53;;;3.80;99.90;;;;;;5048751;28;20053;-87
2021/12/27 07:14:05;;;;;;;11.77;6.13;;;3.80;99.90;;;;;;5049420;28;20381;-87
2021/12/27 07:16:31;;;;;;;9.80;5.55;;;3.80;99.90;;;;;;5048693;28;20033;-88
2021/12/27 07:18:56;;;;;;;9.52;5.50;;;3.90;99.90;;;;;;5049251;28;20033;-88
2021/12/27 07:21:22;;;;;;;8.65;5.53;;;3.80;99.90;;;;;;5048916;28;20040;-87
2021/12/27 07:23:47;;;;;;;8.27;5.97;;;3.80;99.90;;;;;;5032598;28;20036;-87
2021/12/27 07:26:13;;;;;;;9.93;6.03;;;3.90;99.90;;;;;;5048856;28;20033;-87
2021/12/27 07:28:59;;;;;;;8.82;5.25;;;3.90;99.90;;;;;;5048815;28;20029;-89
2021/12/27 07:31:24;;;;;;;12.57;7.03;;;4.00;99.90;;;;;;4950025;29;20486;-88
2021/12/27 07:33:50;;;;;;;11.93;7.10;;;4.00;99.90;;;;;;4966307;29;20102;-87
2021/12/27 07:36:16;;;;;;;10.80;6.43;;;4.00;99.90;;;;;;4949964;29;20066;-87
2021/12/27 07:38:42;;;;;;;8.60;5.00;;;4.00;99.90;;;;;;4966356;29;20066;-88
2021/12/27 07:41:09;;;;;;;9.32;5.38;;;4.00;99.90;;;;;;4934337;29;20031;-87
2021/12/27 07:43:34;;;;;;;10.27;6.30;;;4.00;99.90;;;;;;4933806;29;20043;-88
2021/12/27 07:46:01;;;;;;;8.93;4.90;;;4.00;99.90;;;;;;4950155;29;20039;-87
2021/12/27 07:48:26;;;;;;;10.52;6.07;;;4.00;99.90;;;;;;4949828;29;20102;-89
2021/12/27 07:50:52;;;;;;;10.88;6.43;;;4.00;99.90;;;;;;4907951;28;20047;-87
2021/12/27 07:53:18;;;;;;;11.60;6.60;;;4.00;99.90;;;;;;4933752;28;20070;-89
2021/12/27 07:55:43;;;;;;;8.73;5.50;;;4.10;99.90;;;;;;4933064;29;20043;-88
2021/12/27 07:58:09;;;;;;;11.48;6.40;;;4.10;99.90;;;;;;4946991;29;20043;-88
2021/12/27 08:00:35;;;;;;;11.80;5.47;;;4.10;99.90;;;;;;4965028;28;20058;-88
2021/12/27 08:03:01;;;;;;;11.07;6.22;;;4.10;99.90;;;;;;4949107;29;20051;-89
2021/12/27 08:05:27;;;;;;;10.07;5.47;;;4.10;99.90;;;;;;4950607;29;20047;-89
2021/12/27 08:07:53;;;;;;;11.25;6.28;;;4.20;99.90;;;;;;4969572;28;20032;-89
2021/12/27 08:10:18;;;;;;;10.90;6.05;;;4.20;99.90;;;;;;5045305;28;20412;-88
2021/12/27 08:12:45;;;;;;;10.23;6.05;;;4.20;99.90;;;;;;5045877;28;20025;-90
2021/12/27 08:15:11;;;;;;;12.23;6.70;;;4.20;99.90;;;;;;5043956;28;20033;-88
2021/12/27 08:17:37;;;;;;;12.20;7.93;;;4.20;99.90;;;;;;5039619;28;20035;-88
2021/12/27 08:20:05;;;;;;;12.60;7.80;;;4.20;99.90;;;;;;5055785;28;20116;-89
2021/12/27 08:22:31;;;;;;;13.02;6.85;;;4.20;99.90;;;;;;5026762;28;20037;-89
2021/12/27 08:24:57;;;;;;;11.55;6.60;;;4.20;99.90;;;;;;5030946;28;20045;-88
2021/12/27 08:27:25;;;;;;;14.80;7.60;;;4.30;99.90;;;;;;5057510;28;20036;-89
2021/12/27 08:29:51;;;;;;;11.00;5.85;;;4.20;99.90;;;;;;5038612;28;20064;-89
2021/12/27 08:32:16;;;;;;;9.50;5.85;;;4.30;99.90;;;;;;5027059;28;20033;-89
2021/12/27 08:34:42;;;;;;;9.15;5.72;;;4.30;99.90;;;;;;5031572;28;20034;-89
2021/12/27 08:37:08;;;;;;;9.85;5.53;;;4.30;99.90;;;;;;5027173;28;20049;-89
2021/12/27 08:39:34;;;;;;;10.07;6.13;;;4.30;99.90;;;;;;5027122;28;20044;-90
2021/12/27 08:42:02;;;;;;;13.45;6.10;;;4.30;99.90;;;;;;5027355;28;20037;-90
2021/12/27 08:44:27;;;;;;;10.57;5.53;;;4.30;99.90;;;;;;5027321;28;20045;-90
2021/12/27 08:46:53;;;;;;;7.90;4.82;;;4.30;99.90;;;;;;5044017;28;20061;-90
2021/12/27 08:49:19;;;;;;;9.95;6.00;;;4.40;99.90;;;;;;5027429;28;20041;-90
2021/12/27 08:51:45;;;;;;;9.90;4.95;;;4.40;99.90;;;;;;5027420;28;20033;-89
2021/12/27 08:54:11;;;;;;;10.20;5.05;;;4.40;99.90;;;;;;5027418;28;20030;-91
2021/12/27 08:56:38;;;;;;;7.43;4.32;;;4.40;99.90;;;;;;5044296;28;20033;-90
2021/12/27 08:59:05;;;;;;;9.15;5.00;;;4.40;99.90;;;;;;5027524;28;20064;-91
2021/12/27 09:01:31;;;;;;;8.75;4.50;;;4.40;99.90;;;;;;5028739;28;20183;-90
2021/12/27 09:03:57;;;;;;;9.48;4.72;;;4.40;99.90;;;;;;5027245;28;20037;-90
2021/12/27 09:06:22;;;;;;;9.10;5.22;;;4.40;99.90;;;;;;5027167;28;20033;-90
2021/12/27 09:08:48;;;;;;;9.43;4.90;;;4.40;99.90;;;;;;5027477;28;20041;-89
2021/12/27 09:11:15;;;;;;;7.65;4.10;;;4.50;99.90;;;;;;5027203;28;20036;-89
2021/12/27 09:13:41;;;;;;;9.73;4.72;;;4.50;99.90;;;;;;5027079;28;20121;-89
2021/12/27 09:16:08;;;;;;;9.57;4.15;;;4.50;99.90;;;;;;5027388;28;20110;-90
2021/12/27 09:18:35;;;;;;;10.30;4.43;;;4.50;99.90;;;;;;5027487;28;20076;-89
2021/12/27 09:21:01;;;;;;;7.53;4.82;;;4.60;99.90;;;;;;5026983;28;20386;-89
2021/12/27 09:23:27;;;;;;;7.03;4.05;;;4.60;99.90;;;;;;4988469;28;20735;-91
2021/12/27 09:25:53;;;;;;;8.55;4.15;;;4.60;99.90;;;;;;5003912;28;20046;-90
2021/12/27 09:28:19;;;;;;;6.72;3.65;;;4.60;99.90;;;;;;5005756;28;20092;-89
2021/12/27 09:30:44;;;;;;;5.82;3.35;;;4.70;99.90;;;;;;4992770;28;20049;-89
2021/12/27 09:33:10;;;;;;;6.30;3.10;;;4.70;99.90;;;;;;5010596;28;20074;-89
2021/12/27 09:35:37;;;;;;;6.22;3.50;;;4.70;99.90;;;;;;5012470;28;20044;-90
2021/12/27 09:38:03;;;;;;;7.45;3.70;;;4.80;99.90;;;;;;5027715;28;20056;-89
2021/12/27 09:40:29;;;;;;;5.85;3.35;;;4.80;99.90;;;;;;5009335;28;20030;-89
2021/12/27 09:42:55;;;;;;;7.38;3.67;;;4.80;99.90;;;;;;5025949;28;20049;-88
2021/12/27 09:45:22;;;;;;;7.55;4.05;;;4.80;99.90;;;;;;5009143;28;20080;-89
2021/12/27 09:47:50;;;;;;;6.55;3.38;;;4.80;99.90;;;;;;5025612;28;20034;-90
2021/12/27 09:50:26;;;;;;;6.82;3.92;;;4.90;99.90;;;;;;5009042;28;20052;-89
2021/12/27 09:52:51;;;;;;;6.22;3.25;;;4.90;99.90;;;;;;5009064;28;20041;-88
2021/12/27 09:55:17;;;;;;;6.55;3.78;;;5.00;99.90;;;;;;5027970;28;20041;-89
2021/12/27 09:57:43;;;;;;;6.15;3.83;;;5.00;99.90;;;;;;5013160;28;20039;-89
2021/12/27 10:00:11;;;;;;;5.97;3.50;;;5.10;99.90;;;;;;5046625;28;20104;-88
2021/12/27 10:02:38;;;;;;;6.63;3.75;;;5.10;99.90;;;;;;5035133;28;20038;-89
2021/12/27 10:05:04;;;;;;;5.35;3.45;;;5.10;99.90;;;;;;5029920;28;20042;-89
2021/12/27 10:07:30;;;;;;;5.72;3.15;;;5.20;99.90;;;;;;5028780;28;20033;-88
2021/12/27 10:09:59;;;;;;;6.53;3.70;;;5.30;99.90;;;;;;5068536;28;20107;-87
2021/12/27 10:12:26;;;;;;;6.40;3.65;;;5.40;99.90;;;;;;5069934;28;20094;-89
2021/12/27 10:15:07;;;;;;;8.98;3.95;;;5.50;99.90;;;;;;5069050;28;20086;-88
2021/12/27 10:17:35;;;;;;;6.50;4.03;;;5.50;99.90;;;;;;5068277;28;20063;-89
2021/12/27 10:20:13;;;;;;;5.90;3.22;;;5.50;99.90;;;;;;5068888;28;20068;-88
2021/12/27 10:22:41;;;;;;;6.65;3.33;;;5.60;99.90;;;;;;5069337;28;20033;-88
2021/12/27 10:25:27;;;;;;;7.38;3.47;;;5.60;99.90;;;;;;5052670;28;20062;-88
2021/12/27 10:27:55;;;;;;;5.90;3.03;;;5.60;99.90;;;;;;5067914;28;20029;-88
2021/12/27 10:30:26;;;;;;;6.35;2.95;;;5.60;99.90;;;;;;5052207;28;20078;-88
2021/12/27 10:33:12;;;;;;;7.55;3.63;;;5.70;99.90;;;;;;5052194;28;20032;-88
2021/12/27 10:35:40;;;;;;;7.13;3.17;;;5.70;99.90;;;;;;5068710;28;20060;-87
2021/12/27 10:38:24;;;;;;;6.43;3.20;;;5.80;99.90;;;;;;5067227;28;20036;-87
2021/12/27 10:40:57;;;;;;;6.18;3.22;;;5.80;99.90;;;;;;5032488;28;20100;-88
2021/12/27 10:43:46;;;;;;;6.20;3.70;;;5.80;99.90;;;;;;5033158;28;20097;-88
2021/12/27 10:46:19;;;;;;;7.35;3.95;;;5.90;99.90;;;;;;5051402;28;20043;-87
2021/12/27 10:48:57;;;;;;;5.28;3.25;;;5.90;99.90;;;;;;5068516;28;20040;-87
2021/12/27 10:51:29;;;;;;;5.97;3.25;;;5.90;99.90;;;;;;5052116;28;20036;-88
2021/12/27 10:53:57;;;;;;;7.07;3.95;;;6.00;99.90;;;;;;5052157;28;20032;-87
2021/12/27 10:56:25;;;;;;;7.50;3.72;;;6.10;99.90;;;;;;5067952;28;20037;-87
2021/12/27 10:58:54;;;;;;;7.30;4.05;;;6.20;99.90;;;;;;5068029;28;20024;-86
2021/12/27 11:01:22;;;;;;;8.70;4.50;;;6.20;99.90;;;;;;5067511;28;20029;-87
2021/12/27 11:03:50;;;;;;;8.68;5.05;;;6.30;99.90;;;;;;5086504;28;20024;-86
2021/12/27 11:06:24;;;;;;;11.23;5.53;;;6.40;99.90;;;;;;5067811;28;20103;-87
2021/12/27 11:08:51;;;;;;;7.50;4.75;;;6.40;99.90;;;;;;5084740;28;20029;-85
2021/12/27 11:11:19;;;;;;;9.80;5.55;;;6.50;99.90;;;;;;5068190;28;20090;-86
2021/12/27 11:13:47;;;;;;;9.10;5.72;;;6.70;99.90;;;;;;5068524;28;20028;-86
2021/12/27 11:16:13;;;;;;;12.38;5.63;;;6.80;99.90;;;;;;5067331;28;20115;-86
2021/12/27 11:18:39;;;;;;;8.43;5.13;;;6.90;99.90;;;;;;5067469;28;20020;-85
2021/12/27 11:21:15;;;;;;;10.98;6.32;;;6.80;99.90;;;;;;5051530;28;20032;-86
2021/12/27 11:23:42;;;;;;;9.73;5.78;;;6.80;99.90;;;;;;5050696;28;20056;-85
2021/12/27 11:26:12;;;;;;;11.85;5.63;;;6.80;99.90;;;;;;5066819;28;20040;-85
2021/12/27 11:29:17;;;;;;;10.85;5.18;;;6.80;99.90;;;;;;5050999;28;20040;-90
2021/12/27 11:31:45;;;;;;;8.35;4.68;;;6.70;99.90;;;;;;4952503;28;20062;-90
2021/12/27 11:34:13;;;;;;;9.85;5.50;;;6.80;99.90;;;;;;4984912;28;20043;-92
2021/12/27 11:36:43;;;;;;;9.07;5.18;;;6.80;99.90;;;;;;4984419;28;20038;-91
2021/12/27 11:39:30;;;;;;;10.35;4.93;;;6.80;99.90;;;;;;4950790;29;20035;-91
2021/12/27 11:42:11;;;;;;;9.63;5.03;;;6.90;99.90;;;;;;4984175;28;20148;-91
2021/12/27 11:44:45;;;;;;;6.40;4.13;;;6.90;99.90;;;;;;4984748;28;20062;-92
2021/12/27 11:47:21;;;;;;;7.88;4.63;;;6.90;99.90;;;;;;4944696;28;20033;-91
2021/12/27 11:49:52;;;;;;;7.60;4.25;;;7.10;99.90;;;;;;4984198;28;20047;-90
2021/12/27 11:52:19;;;;;;;7.25;4.50;;;7.10;99.90;;;;;;4984122;28;20089;-91
2021/12/27 11:54:59;;;;;;;9.05;4.20;;;7.10;99.90;;;;;;4984228;28;20068;-89
2021/12/27 11:57:39;;;;;;;7.18;3.85;;;7.10;99.90;;;;;;4968204;28;20110;-90
2021/12/27 12:00:28;;;;;;;9.90;6.18;;;7.20;99.90;;;;;;4984593;28;20061;-91
2021/12/27 12:03:16;;;;;;;7.88;4.15;;;7.20;99.90;;;;;;4984195;28;20197;-91
2021/12/27 12:05:48;;;;;;;5.95;3.72;;;7.10;99.90;;;;;;4967736;28;20110;-91
2021/12/27 12:08:17;;;;;;;8.10;4.05;;;7.20;99.90;;;;;;4994905;28;20067;-91
2021/12/27 12:11:05;;;;;;;7.88;3.92;;;7.30;99.90;;;;;;5047918;28;20037;-92
2021/12/27 12:13:36;;;;;;;8.38;4.10;;;7.30;99.90;;;;;;5007699;28;20044;-91
2021/12/27 12:16:09;;;;;;;5.93;3.60;;;7.40;99.90;;;;;;5026348;28;20128;-92
2021/12/27 12:18:41;;;;;;;7.15;4.00;;;7.50;99.90;;;;;;5020275;28;20041;-91
2021/12/27 12:21:27;;;;;;;8.30;4.28;;;7.40;99.90;;;;;;5019459;28;20034;-93
2021/12/27 12:23:57;;;;;;;6.70;3.55;;;7.50;99.90;;;;;;5020190;28;20084;-91
2021/12/27 12:26:23;;;;;;;7.85;4.20;;;7.50;99.90;;;;;;5042288;28;20041;-91
2021/12/27 12:29:09;;;;;;;8.98;5.00;;;7.50;99.90;;;;;;5034530;28;20055;-90
2021/12/27 12:31:34;;;;;;;8.23;3.92;;;7.70;99.90;;;;;;4951264;28;20062;-91
2021/12/27 12:34:15;;;;;;;8.15;4.38;;;7.70;99.90;;;;;;4963958;28;20039;-90
2021/12/27 12:36:52;;;;;;;7.68;4.43;;;7.60;99.90;;;;;;4954969;29;20075;-91
2021/12/27 12:39:20;;;;;;;7.57;4.30;;;7.60;99.90;;;;;;4968844;28;20032;-91
2021/12/27 12:41:48;;;;;;;8.30;4.65;;;7.60;99.90;;;;;;4961701;29;20054;-90
2021/12/27 12:44:14;;;;;;;7.80;4.70;;;7.60;99.90;;;;;;4961199;29;20046;-91
2021/12/27 12:46:46;;;;;;;8.32;3.92;;;7.70;99.90;;;;;;4966386;28;20085;-92
2021/12/27 12:49:19;;;;;;;6.18;3.42;;;7.70;99.90;;;;;;4945933;29;20051;-91
2021/12/27 12:51:46;;;;;;;5.38;3.05;;;7.80;99.90;;;;;;4961101;29;20030;-90
2021/12/27 12:54:23;;;;;;;6.85;3.95;;;7.70;99.90;;;;;;4958982;29;20031;-90
2021/12/27 12:57:07;;;;;;;6.90;3.20;;;7.70;99.90;;;;;;4960755;28;20178;-90
2021/12/27 12:59:47;;;;;;;6.70;3.05;;;7.70;99.90;;;;;;4966080;28;20073;-90
2021/12/27 13:02:17;;;;;;;5.40;3.55;;;7.70;99.90;;;;;;4951762;29;20054;-89
2021/12/27 13:04:45;;;;;;;7.07;3.65;;;7.70;99.90;;;;;;4961477;28;20038;-90
2021/12/27 13:07:13;;;;;;;5.50;3.22;;;7.70;99.90;;;;;;4960709;28;20130;-89